Swindon, United Kingdom
Current Conditions -  °F | °C
As of 7:58 PM on Monday 26 Jan 2015 (Local Time) from EGVA Reporting Station
Overcast Overcast  
Wind Chill: 38°   Ceiling: 3900
Heat Index: 42°   Visibility: 6mi
Dew Point: 36°   Wind: 7mph
Humidity: 77%   Direction: 280°W
Pressure: 30.34"   Gusts: NA
Location:  51.56°N, 1.77°W
Report Text: EGVA 261958Z AUTO 28006KT 9999 OVC039 06/02 A3034 RMK AO2 SLP280 T00580020 $
Loading
Personal Weather Stations






























Interactive Weather Map New forecast layout! Learn more

10-Day Weather Forecast

Advertisements
Track Severe Weather on mobile